createdAt,value
2023-02-11T00:02:07.236Z,6.11
2023-02-11T00:06:08.448Z,6.15
2023-02-11T00:10:07.142Z,6.18
2023-02-11T00:14:07.405Z,6.23
2023-02-11T00:18:06.175Z,6.26
2023-02-11T00:22:06.682Z,6.29
2023-02-11T00:26:13.744Z,6.30
2023-02-11T00:30:07.041Z,6.31
2023-02-11T00:34:06.227Z,6.33
2023-02-11T00:42:06.523Z,6.35
2023-02-11T00:46:07.242Z,6.38
2023-02-11T00:50:07.392Z,6.39
2023-02-11T00:54:06.608Z,6.41
2023-02-11T00:58:06.498Z,6.42
2023-02-11T01:02:06.371Z,6.44
2023-02-11T01:10:07.014Z,6.45
2023-02-11T01:14:06.999Z,6.46
2023-02-11T01:18:06.408Z,6.44
2023-02-11T01:22:06.456Z,6.43
2023-02-11T01:30:08.919Z,6.44
2023-02-11T01:34:06.448Z,6.45
2023-02-11T01:42:08.871Z,6.46
2023-02-11T01:46:16.426Z,6.45
2023-02-11T01:54:19.627Z,6.42
2023-02-11T01:58:06.686Z,6.40
2023-02-11T02:06:14.592Z,6.42
2023-02-11T02:10:12.836Z,6.43
2023-02-11T02:18:19.923Z,6.42
2023-02-11T02:22:26.417Z,6.44
2023-02-11T02:26:21.770Z,6.45
2023-02-11T02:30:26.380Z,6.46
2023-02-11T02:34:12.363Z,6.47
2023-02-11T02:38:13.156Z,6.43
2023-02-11T02:42:08.394Z,6.41
2023-02-11T02:46:11.948Z,6.38
2023-02-11T02:54:26.380Z,6.37
2023-02-11T03:06:12.115Z,6.39
2023-02-11T03:10:12.537Z,6.40
2023-02-11T03:14:11.946Z,6.43
2023-02-11T03:18:10.976Z,6.41
2023-02-11T03:22:10.679Z,6.39
2023-02-11T03:26:16.678Z,6.37
2023-02-11T03:34:11.603Z,6.36
2023-02-11T03:42:09.752Z,6.37
2023-02-11T03:46:09.875Z,6.39
2023-02-11T03:50:11.379Z,6.41
2023-02-11T03:54:12.672Z,6.44
2023-02-11T03:58:08.093Z,6.46
2023-02-11T04:02:06.830Z,6.48
2023-02-11T04:06:07.410Z,6.51
2023-02-11T04:10:07.294Z,6.52
2023-02-11T04:14:06.951Z,6.54
2023-02-11T04:18:06.818Z,6.55
2023-02-11T04:26:06.982Z,6.54
2023-02-11T04:34:06.986Z,6.55
2023-02-11T04:38:06.936Z,6.53
2023-02-11T04:42:07.151Z,6.54
2023-02-11T04:46:06.848Z,6.52
2023-02-11T04:50:07.160Z,6.51
2023-02-11T04:58:07.150Z,6.49
2023-02-11T05:06:09.220Z,6.51
2023-02-11T05:10:07.186Z,6.53
2023-02-11T05:14:07.226Z,6.56
2023-02-11T05:18:07.286Z,6.57
2023-02-11T05:30:07.918Z,6.58
2023-02-11T05:42:07.188Z,6.57
2023-02-11T05:50:07.497Z,6.58
2023-02-11T05:54:07.117Z,6.59
2023-02-11T05:58:07.718Z,6.60
2023-02-11T06:06:09.635Z,6.61
2023-02-11T06:10:07.986Z,6.60
2023-02-11T06:14:07.391Z,6.61
2023-02-11T06:22:07.385Z,6.62
2023-02-11T06:26:08.702Z,6.60
2023-02-11T06:30:08.754Z,6.58
2023-02-11T06:34:07.683Z,6.60
2023-02-11T06:38:07.237Z,6.61
2023-02-11T06:42:08.945Z,6.62
2023-02-11T06:46:08.175Z,6.64
2023-02-11T06:50:12.162Z,6.65
2023-02-11T06:54:07.866Z,6.66
2023-02-11T07:02:08.991Z,6.65
2023-02-11T07:06:08.185Z,6.64
2023-02-11T07:14:07.834Z,6.65
2023-02-11T07:22:07.488Z,6.67
2023-02-11T07:26:10.733Z,6.69
2023-02-11T07:30:08.216Z,6.71
2023-02-11T07:34:09.974Z,6.72
2023-02-11T07:38:07.506Z,6.74
2023-02-11T07:42:07.366Z,6.75
2023-02-11T07:46:14.156Z,6.77
2023-02-11T07:50:08.403Z,6.78
2023-02-11T07:54:07.740Z,6.76
2023-02-11T07:58:07.549Z,6.73
2023-02-11T08:02:08.339Z,6.74
2023-02-11T08:10:08.077Z,6.75
2023-02-11T08:14:08.362Z,6.78
2023-02-11T08:18:07.696Z,6.79
2023-02-11T08:22:07.719Z,6.84
2023-02-11T08:26:10.352Z,6.88
2023-02-11T08:30:08.775Z,6.92
2023-02-11T08:34:10.366Z,6.96
2023-02-11T08:38:08.131Z,7.01
2023-02-11T08:42:07.647Z,7.03
2023-02-11T08:46:08.630Z,7.04
2023-02-11T08:50:08.432Z,7.06
2023-02-11T08:54:08.893Z,7.07
2023-02-11T08:58:08.315Z,7.10
2023-02-11T09:02:10.093Z,7.12
2023-02-11T09:06:09.591Z,7.15
2023-02-11T09:10:07.941Z,7.19
2023-02-11T09:14:14.337Z,7.22
2023-02-11T09:18:07.746Z,7.25
2023-02-11T09:22:07.887Z,7.29
2023-02-11T09:26:09.465Z,7.32
2023-02-11T09:30:08.777Z,7.36
2023-02-11T09:34:07.866Z,7.38
2023-02-11T09:38:07.684Z,7.41
2023-02-11T09:42:26.712Z,7.42
2023-02-11T09:46:13.851Z,7.45
2023-02-11T09:50:12.585Z,7.47
2023-02-11T09:54:14.614Z,7.50
2023-02-11T09:58:12.151Z,7.51
2023-02-11T10:02:16.207Z,7.53
2023-02-11T10:06:18.984Z,7.57
2023-02-11T10:10:16.648Z,7.63
2023-02-11T10:14:24.618Z,7.68
2023-02-11T10:18:27.746Z,7.74
2023-02-11T10:22:15.751Z,7.76
2023-02-11T10:26:11.973Z,7.78
2023-02-11T10:30:19.907Z,7.79
2023-02-11T10:34:10.443Z,7.82
2023-02-11T10:38:08.235Z,7.86
2023-02-11T10:42:12.842Z,7.89
2023-02-11T10:46:15.573Z,7.92
2023-02-11T10:50:18.116Z,7.97
2023-02-11T10:54:13.752Z,8.01
2023-02-11T10:58:23.232Z,8.05
2023-02-11T11:02:20.801Z,8.09
2023-02-11T11:06:08.931Z,8.14
2023-02-11T11:10:24.758Z,8.21
2023-02-11T11:14:18.185Z,8.26
2023-02-11T11:18:21.353Z,8.33
2023-02-11T11:22:20.224Z,8.47
2023-02-11T11:26:11.502Z,8.65
2023-02-11T11:30:15.635Z,8.84
2023-02-11T11:34:20.902Z,8.99
2023-02-11T11:38:13.809Z,9.09
2023-02-11T11:42:26.485Z,9.15
2023-02-11T11:46:11.195Z,9.23
2023-02-11T11:50:25.876Z,9.27
2023-02-11T11:54:11.776Z,9.30
2023-02-11T11:58:14.082Z,9.31
2023-02-11T12:02:26.152Z,9.29
2023-02-11T12:06:20.206Z,9.28
2023-02-11T12:10:27.878Z,9.31
2023-02-11T12:14:19.402Z,9.35
2023-02-11T12:18:25.006Z,9.37
2023-02-11T12:30:19.164Z,9.41
2023-02-11T12:34:27.102Z,9.42
2023-02-11T12:38:19.057Z,9.44
2023-02-11T12:42:30.064Z,9.42
2023-02-11T12:50:15.698Z,9.37
2023-02-11T12:54:21.034Z,9.34
2023-02-11T12:58:16.340Z,9.31
2023-02-11T13:02:17.971Z,9.25
2023-02-11T13:06:11.950Z,9.22
2023-02-11T13:10:23.838Z,9.24
2023-02-11T13:14:15.645Z,9.25
2023-02-11T13:18:19.612Z,9.21
2023-02-11T13:22:15.891Z,9.18
2023-02-11T13:30:26.218Z,9.19
2023-02-11T13:34:26.484Z,9.18
2023-02-11T13:38:20.511Z,9.17
2023-02-11T13:46:12.277Z,9.18
2023-02-11T13:50:20.634Z,9.20
2023-02-11T13:58:19.111Z,9.18
2023-02-11T14:10:28.371Z,9.16
2023-02-11T14:14:21.948Z,9.14
2023-02-11T14:18:28.688Z,9.16
2023-02-11T14:22:15.581Z,9.18
2023-02-11T14:26:27.567Z,9.20
2023-02-11T14:30:20.153Z,9.23
2023-02-11T14:34:28.395Z,9.26
2023-02-11T14:50:16.696Z,9.24
2023-02-11T14:54:15.826Z,9.23
2023-02-11T14:58:14.898Z,9.24
2023-02-11T15:02:20.126Z,9.25
2023-02-11T15:06:17.390Z,9.23
2023-02-11T15:10:15.801Z,9.21
2023-02-11T15:14:14.381Z,9.20
2023-02-11T15:18:21.618Z,9.19
2023-02-11T15:26:12.528Z,9.22
2023-02-11T15:30:25.090Z,9.18
2023-02-11T15:34:08.718Z,9.16
2023-02-11T15:38:11.900Z,9.15
2023-02-11T15:42:17.166Z,9.13
2023-02-11T15:46:11.009Z,9.14
2023-02-11T15:50:19.732Z,9.15
2023-02-11T15:54:18.113Z,9.14
2023-02-11T15:58:10.344Z,9.17
2023-02-11T16:02:16.135Z,9.14
2023-02-11T16:06:19.110Z,9.13
2023-02-11T16:10:17.671Z,9.11
2023-02-11T16:14:21.251Z,9.05
2023-02-11T16:18:14.810Z,9.03
2023-02-11T16:22:13.228Z,9.02
2023-02-11T16:26:19.768Z,9.01
2023-02-11T16:34:18.402Z,8.99
2023-02-11T16:38:08.825Z,8.97
2023-02-11T16:42:10.044Z,8.92
2023-02-11T16:46:13.880Z,8.94
2023-02-11T16:50:18.280Z,8.97
2023-02-11T16:54:13.456Z,8.93
2023-02-11T16:58:09.165Z,8.88
2023-02-11T17:02:14.598Z,8.87
2023-02-11T17:26:09.677Z,8.88
2023-02-11T17:30:12.364Z,8.86
2023-02-11T17:46:10.226Z,8.85
2023-02-11T17:50:10.228Z,8.81
2023-02-11T17:54:12.917Z,8.76
2023-02-11T17:58:09.295Z,8.72
2023-02-11T18:02:10.690Z,8.70
2023-02-11T18:06:11.154Z,8.69
2023-02-11T18:14:09.503Z,8.68
2023-02-11T18:18:09.769Z,8.67
2023-02-11T18:22:09.308Z,8.66
2023-02-11T18:26:11.192Z,8.64
2023-02-11T18:30:13.751Z,8.62
2023-02-11T18:34:10.803Z,8.60
2023-02-11T18:38:09.313Z,8.58
2023-02-11T18:42:09.362Z,8.55
2023-02-11T18:46:10.854Z,8.52
2023-02-11T18:50:12.714Z,8.51
2023-02-11T18:54:09.190Z,8.48
2023-02-11T19:02:10.228Z,8.47
2023-02-11T19:06:14.004Z,8.45
2023-02-11T19:10:10.202Z,8.42
2023-02-11T19:14:09.640Z,8.41
2023-02-11T19:18:09.786Z,8.42
2023-02-11T19:26:09.320Z,8.41
2023-02-11T19:30:10.451Z,8.40
2023-02-11T19:38:09.529Z,8.39
2023-02-11T19:42:09.801Z,8.40
2023-02-11T19:46:09.430Z,8.41
2023-02-11T19:50:10.544Z,8.40
2023-02-11T19:54:09.848Z,8.38
2023-02-11T19:58:09.508Z,8.36
2023-02-11T20:02:10.572Z,8.34
2023-02-11T20:06:12.524Z,8.31
2023-02-11T20:10:09.820Z,8.29
2023-02-11T20:14:11.742Z,8.27
2023-02-11T20:22:09.606Z,8.25
2023-02-11T20:30:10.716Z,8.23
2023-02-11T20:34:10.434Z,8.22
2023-02-11T20:38:09.550Z,8.20
2023-02-11T20:42:10.614Z,8.21
2023-02-11T20:46:09.713Z,8.20
2023-02-11T20:50:10.835Z,8.17
2023-02-11T20:54:12.308Z,8.13
2023-02-11T20:58:09.642Z,8.10
2023-02-11T21:02:11.473Z,8.07
2023-02-11T21:06:10.059Z,8.05
2023-02-11T21:10:10.037Z,7.97
2023-02-11T21:14:10.944Z,7.93
2023-02-11T21:22:09.805Z,7.94
2023-02-11T21:26:09.735Z,7.96
2023-02-11T21:38:10.188Z,7.94
2023-02-11T21:42:10.162Z,7.92
2023-02-11T21:46:12.638Z,7.90
2023-02-11T21:50:10.185Z,7.89
2023-02-11T21:54:10.331Z,7.88
2023-02-11T22:02:10.019Z,7.87
2023-02-11T22:06:11.929Z,7.89
2023-02-11T22:14:09.966Z,7.87
2023-02-11T22:18:09.706Z,7.85
2023-02-11T22:26:12.567Z,7.86
2023-02-11T22:30:10.487Z,7.85
2023-02-11T22:34:09.981Z,7.77
2023-02-11T22:38:09.807Z,7.76
2023-02-11T22:42:10.114Z,7.77
2023-02-11T22:46:11.816Z,7.79
2023-02-11T22:54:12.741Z,7.78
2023-02-11T22:58:10.406Z,7.76
2023-02-11T23:02:10.292Z,7.75
2023-02-11T23:06:10.638Z,7.74
2023-02-11T23:10:10.374Z,7.75
2023-02-11T23:14:11.108Z,7.77
2023-02-11T23:18:11.774Z,7.75
2023-02-11T23:26:11.249Z,7.71
2023-02-11T23:30:11.051Z,7.67
2023-02-11T23:34:11.146Z,7.64
2023-02-11T23:38:10.086Z,7.61
2023-02-11T23:42:11.096Z,7.59
2023-02-11T23:46:10.389Z,7.60
2023-02-11T23:54:11.261Z,7.64
2023-02-11T23:58:10.998Z,7.65
